createdAt,value
2019-02-05T00:00:29.106Z,10.58
2019-02-05T00:01:00.498Z,10.61
2019-02-05T00:01:33.974Z,10.60
2019-02-05T00:02:04.680Z,10.61
2019-02-05T00:02:35.908Z,10.60
2019-02-05T00:03:07.117Z,10.60
2019-02-05T00:03:38.387Z,10.62
2019-02-05T00:04:09.608Z,10.62
2019-02-05T00:04:40.770Z,10.63
2019-02-05T00:05:11.967Z,10.65
2019-02-05T00:05:44.036Z,10.68
2019-02-05T00:06:15.226Z,10.71
2019-02-05T00:06:46.407Z,10.72
2019-02-05T00:07:17.581Z,10.73
2019-02-05T00:07:49.141Z,10.73
2019-02-05T00:08:20.379Z,10.72
2019-02-05T00:08:51.568Z,10.72
2019-02-05T00:09:22.773Z,10.72
2019-02-05T00:09:53.920Z,10.73
2019-02-05T00:10:25.096Z,10.74
2019-02-05T00:10:56.258Z,10.75
2019-02-05T00:11:27.446Z,10.76
2019-02-05T00:11:58.623Z,10.81
2019-02-05T00:12:29.836Z,10.83
2019-02-05T00:13:01.009Z,10.85
2019-02-05T00:13:32.789Z,10.87
2019-02-05T00:14:03.977Z,10.91
2019-02-05T00:14:35.169Z,10.94
2019-02-05T00:15:06.400Z,10.94
2019-02-05T00:15:37.572Z,10.96
2019-02-05T00:16:08.766Z,10.96
2019-02-05T00:16:39.945Z,10.96
2019-02-05T00:17:11.130Z,10.96
2019-02-05T00:17:42.324Z,10.99
2019-02-05T00:18:13.667Z,11.00
2019-02-05T00:18:44.855Z,11.01
2019-02-05T00:19:16.031Z,11.01
2019-02-05T00:19:47.211Z,11.01
2019-02-05T00:20:18.425Z,11.01
2019-02-05T00:20:49.590Z,11.01
2019-02-05T00:21:20.759Z,11.00
2019-02-05T00:21:51.946Z,11.01
2019-02-05T00:22:23.159Z,11.03
2019-02-05T00:22:54.390Z,11.02
2019-02-05T00:23:25.623Z,11.01
2019-02-05T00:23:56.920Z,11.01
2019-02-05T00:24:28.137Z,11.03
2019-02-05T00:24:59.408Z,11.03
2019-02-05T00:25:30.623Z,11.02
2019-02-05T00:26:06.235Z,11.03
2019-02-05T00:26:34.845Z,11.04
2019-02-05T00:27:06.086Z,11.02
2019-02-05T00:27:37.305Z,11.00
2019-02-05T00:28:08.527Z,11.01
2019-02-05T00:28:39.765Z,11.01
2019-02-05T00:29:10.981Z,11.01
2019-02-05T00:29:42.200Z,11.01
2019-02-05T00:30:13.426Z,11.03
2019-02-05T00:30:51.949Z,11.04
2019-02-05T00:31:23.210Z,11.03
2019-02-05T00:31:54.722Z,11.05
2019-02-05T00:32:25.952Z,11.05
2019-02-05T00:32:57.172Z,11.03
2019-02-05T00:33:28.419Z,11.02
2019-02-05T00:33:59.646Z,11.03
2019-02-05T00:34:30.851Z,11.02
2019-02-05T00:35:02.084Z,11.02
2019-02-05T00:35:33.311Z,11.04
2019-02-05T00:36:04.530Z,11.03
2019-02-05T00:36:35.737Z,11.02
2019-02-05T00:37:06.951Z,10.99
2019-02-05T00:37:38.600Z,10.97
2019-02-05T00:38:09.815Z,10.96
2019-02-05T00:38:41.049Z,10.95
2019-02-05T00:39:12.267Z,10.97
2019-02-05T00:39:43.522Z,10.96
2019-02-05T00:40:14.788Z,10.96
2019-02-05T00:40:46.032Z,10.96
2019-02-05T00:41:17.266Z,10.95
2019-02-05T00:41:48.481Z,10.92
2019-02-05T00:42:19.713Z,10.88
2019-02-05T00:42:50.969Z,10.86
2019-02-05T00:43:22.579Z,10.86
2019-02-05T00:43:53.797Z,10.85
2019-02-05T00:44:25.038Z,10.84
2019-02-05T00:44:56.270Z,10.82
2019-02-05T00:45:27.465Z,10.83
2019-02-05T00:45:58.694Z,10.84
2019-02-05T00:46:29.917Z,10.83
2019-02-05T00:47:01.180Z,10.82
2019-02-05T00:47:32.440Z,10.81
2019-02-05T00:48:03.937Z,10.80
2019-02-05T00:48:35.218Z,10.78
2019-02-05T00:49:06.721Z,10.78
2019-02-05T00:49:37.952Z,10.77
2019-02-05T00:50:09.163Z,10.75
2019-02-05T00:50:40.379Z,10.76
2019-02-05T00:51:11.664Z,10.73
2019-02-05T00:51:42.996Z,10.71
2019-02-05T00:52:14.185Z,10.71
2019-02-05T00:52:45.411Z,10.70
2019-02-05T00:53:16.609Z,10.68
2019-02-05T00:53:48.033Z,10.64
2019-02-05T00:54:19.245Z,10.63
2019-02-05T00:54:50.737Z,10.63
2019-02-05T00:55:22.419Z,10.65
2019-02-05T00:55:53.634Z,10.66
2019-02-05T00:56:24.883Z,10.66
2019-02-05T00:56:56.123Z,10.68
2019-02-05T00:57:27.337Z,10.69
2019-02-05T00:57:58.552Z,10.70
2019-02-05T00:58:29.777Z,10.71
2019-02-05T00:59:00.997Z,10.71
2019-02-05T00:59:32.457Z,10.71
2019-02-05T01:00:03.672Z,10.71
2019-02-05T01:00:35.269Z,10.71
2019-02-05T01:01:06.484Z,10.72
2019-02-05T01:01:37.736Z,10.72
2019-02-05T01:02:08.956Z,10.72
2019-02-05T01:02:40.163Z,10.73
2019-02-05T01:03:11.377Z,10.73
2019-02-05T01:03:42.637Z,10.72
2019-02-05T01:04:13.886Z,10.72
2019-02-05T01:04:45.098Z,10.71
2019-02-05T01:05:16.582Z,10.71
2019-02-05T01:05:47.799Z,10.70
2019-02-05T01:06:19.234Z,10.70
2019-02-05T01:06:50.478Z,10.70
2019-02-05T01:07:21.734Z,10.67
2019-02-05T01:07:53.077Z,10.65
2019-02-05T01:08:24.286Z,10.65
2019-02-05T01:08:55.569Z,10.63
2019-02-05T01:09:26.780Z,10.61
2019-02-05T01:09:58.024Z,10.57
2019-02-05T01:10:29.264Z,10.58
2019-02-05T01:11:00.768Z,10.57
2019-02-05T01:11:32.004Z,10.55
2019-02-05T01:12:03.585Z,10.54
2019-02-05T01:12:34.824Z,10.51
2019-02-05T01:13:06.067Z,10.52
2019-02-05T01:13:37.331Z,10.51
2019-02-05T01:14:08.543Z,10.51
2019-02-05T01:14:39.752Z,10.50
2019-02-05T01:15:10.999Z,10.51
2019-02-05T01:15:42.254Z,10.52
2019-02-05T01:16:13.501Z,10.53
2019-02-05T01:16:44.822Z,10.53
2019-02-05T01:17:16.111Z,10.53
2019-02-05T01:17:47.830Z,10.54
2019-02-05T01:18:19.054Z,10.54
2019-02-05T01:18:50.286Z,10.53
2019-02-05T01:19:21.508Z,10.52
2019-02-05T01:19:52.708Z,10.51
2019-02-05T01:20:23.935Z,10.50
2019-02-05T01:20:55.184Z,10.50
2019-02-05T01:21:26.399Z,10.49
2019-02-05T01:21:57.707Z,10.49
2019-02-05T01:22:29.105Z,10.47
2019-02-05T01:23:00.345Z,10.46
2019-02-05T01:23:31.967Z,10.45
2019-02-05T01:24:03.194Z,10.47
2019-02-05T01:24:34.381Z,10.45
2019-02-05T01:25:05.645Z,10.45
2019-02-05T01:25:36.859Z,10.46
2019-02-05T01:26:08.152Z,10.46
2019-02-05T01:26:39.425Z,10.47
2019-02-05T01:27:10.648Z,10.49
2019-02-05T01:27:41.862Z,10.49
2019-02-05T01:28:13.088Z,10.49
2019-02-05T01:28:44.313Z,10.50
2019-02-05T01:29:16.014Z,10.50
2019-02-05T01:29:47.228Z,10.51
2019-02-05T01:30:18.449Z,10.52
2019-02-05T01:30:49.668Z,10.52
2019-02-05T01:31:20.917Z,10.51
2019-02-05T01:31:52.146Z,10.51
2019-02-05T01:32:23.355Z,10.51
2019-02-05T01:32:56.893Z,10.50
2019-02-05T01:33:28.132Z,10.51
2019-02-05T01:33:59.345Z,10.52
2019-02-05T01:34:30.570Z,10.54
2019-02-05T01:35:02.049Z,10.60
2019-02-05T01:35:33.284Z,10.70
2019-02-05T01:36:04.504Z,10.78
2019-02-05T01:36:35.853Z,10.87
2019-02-05T01:37:07.065Z,10.93
2019-02-05T01:37:38.572Z,10.96
2019-02-05T01:38:09.939Z,10.97
2019-02-05T01:38:41.177Z,11.00
2019-02-05T01:39:12.397Z,10.99
2019-02-05T01:39:43.632Z,10.97
2019-02-05T01:40:14.823Z,10.95
2019-02-05T01:40:46.391Z,10.91
2019-02-05T01:41:17.625Z,10.89
2019-02-05T01:41:48.815Z,10.83
2019-02-05T01:42:20.062Z,10.80
2019-02-05T01:42:51.284Z,10.81
2019-02-05T01:43:22.506Z,10.83
2019-02-05T01:43:53.717Z,10.89
2019-02-05T01:44:24.956Z,10.90
2019-02-05T01:44:56.158Z,10.92
2019-02-05T01:45:27.373Z,10.94
2019-02-05T01:45:58.603Z,10.94
2019-02-05T01:46:30.029Z,10.94
2019-02-05T01:47:01.282Z,10.93
2019-02-05T01:47:32.505Z,10.90
2019-02-05T01:48:03.715Z,10.88
2019-02-05T01:48:34.962Z,10.88
2019-02-05T01:49:06.243Z,10.87
2019-02-05T01:49:37.455Z,10.84
2019-02-05T01:50:08.690Z,10.83
2019-02-05T01:50:39.900Z,10.81
2019-02-05T01:51:11.123Z,10.81
2019-02-05T01:51:42.352Z,10.81
2019-02-05T01:52:14.267Z,10.82
2019-02-05T01:52:45.546Z,10.81
2019-02-05T01:53:16.777Z,10.83
2019-02-05T01:53:48.014Z,10.81
2019-02-05T01:54:19.221Z,10.78
2019-02-05T01:54:50.440Z,10.75
2019-02-05T01:55:21.655Z,10.74
2019-02-05T01:55:52.888Z,10.72
2019-02-05T01:56:24.157Z,10.72
2019-02-05T01:56:55.382Z,10.70
2019-02-05T01:57:26.604Z,10.70
2019-02-05T01:57:58.250Z,10.68
2019-02-05T01:58:29.492Z,10.67
2019-02-05T01:59:00.721Z,10.69
2019-02-05T01:59:31.926Z,10.69
2019-02-05T02:00:03.220Z,10.69
2019-02-05T02:00:34.442Z,10.69
2019-02-05T02:01:05.731Z,10.71
2019-02-05T02:01:36.962Z,10.74
2019-02-05T02:02:08.175Z,10.75
2019-02-05T02:02:39.378Z,10.81
2019-02-05T02:03:10.595Z,10.86
2019-02-05T02:03:42.215Z,10.90
2019-02-05T02:04:13.449Z,10.95
2019-02-05T02:04:44.641Z,10.99
2019-02-05T02:05:15.907Z,10.99
2019-02-05T02:05:47.169Z,10.99
2019-02-05T02:06:18.401Z,10.99
2019-02-05T02:06:49.612Z,10.98
2019-02-05T02:07:20.876Z,10.95
2019-02-05T02:07:52.119Z,10.94
2019-02-05T02:08:23.433Z,10.91
2019-02-05T02:08:54.662Z,10.90
2019-02-05T02:09:26.309Z,10.86
2019-02-05T02:09:57.522Z,10.86
2019-02-05T02:10:28.779Z,10.84
2019-02-05T02:10:59.976Z,10.84
2019-02-05T02:11:31.208Z,10.85
2019-02-05T02:12:02.422Z,10.80
2019-02-05T02:12:33.659Z,10.79
2019-02-05T02:13:04.892Z,10.79
2019-02-05T02:13:36.162Z,10.78
2019-02-05T02:14:07.540Z,10.78
2019-02-05T02:14:38.815Z,10.77
2019-02-05T02:15:10.068Z,10.76
2019-02-05T02:15:41.290Z,10.72
2019-02-05T02:16:12.529Z,10.71
2019-02-05T02:16:43.741Z,10.71
2019-02-05T02:17:14.980Z,10.69
2019-02-05T02:17:46.198Z,10.68
2019-02-05T02:18:17.421Z,10.67
2019-02-05T02:18:48.634Z,10.65
2019-02-05T02:19:19.901Z,10.65
2019-02-05T02:19:51.397Z,10.64
2019-02-05T02:20:22.625Z,10.64
2019-02-05T02:20:53.859Z,10.62
2019-02-05T02:21:25.069Z,10.62
2019-02-05T02:21:56.285Z,10.62
2019-02-05T02:22:27.494Z,10.62
2019-02-05T02:22:59.020Z,10.62
2019-02-05T02:23:30.301Z,10.61
2019-02-05T02:24:01.518Z,10.61
2019-02-05T02:24:32.742Z,10.62
2019-02-05T02:25:03.955Z,10.62
2019-02-05T02:25:35.663Z,10.61
2019-02-05T02:26:06.899Z,10.58
2019-02-05T02:26:38.223Z,10.57
2019-02-05T02:27:09.441Z,10.58
2019-02-05T02:27:40.663Z,10.58
2019-02-05T02:28:11.952Z,10.59
2019-02-05T02:28:43.161Z,10.57
2019-02-05T02:29:14.461Z,10.57
2019-02-05T02:29:45.703Z,10.56
2019-02-05T02:30:16.977Z,10.54
2019-02-05T02:30:48.189Z,10.53
2019-02-05T02:31:19.700Z,10.51
2019-02-05T02:31:50.976Z,10.49
2019-02-05T02:32:22.211Z,10.48
2019-02-05T02:32:53.442Z,10.46
2019-02-05T02:33:24.664Z,10.43
2019-02-05T02:33:55.896Z,10.41
2019-02-05T02:34:27.122Z,10.41
2019-02-05T02:34:58.355Z,10.41
2019-02-05T02:35:29.614Z,10.41
2019-02-05T02:36:00.823Z,10.42
2019-02-05T02:36:32.053Z,10.42
2019-02-05T02:37:03.590Z,10.43
2019-02-05T02:37:34.814Z,10.39
2019-02-05T02:38:06.045Z,10.39
2019-02-05T02:38:37.262Z,10.37
2019-02-05T02:39:08.488Z,10.35
2019-02-05T02:39:39.721Z,10.35
2019-02-05T02:40:10.932Z,10.34
2019-02-05T02:40:42.217Z,10.34
2019-02-05T02:41:13.444Z,10.35
2019-02-05T02:41:44.660Z,10.35
2019-02-05T02:42:15.892Z,10.33
2019-02-05T02:42:47.414Z,10.32
2019-02-05T02:43:18.639Z,10.31
2019-02-05T02:43:49.868Z,10.29
2019-02-05T02:44:21.074Z,10.27
2019-02-05T02:44:52.314Z,10.26
2019-02-05T02:45:23.643Z,10.24
2019-02-05T02:45:54.938Z,10.24
2019-02-05T02:46:27.123Z,10.20
2019-02-05T02:46:58.396Z,10.12
2019-02-05T02:47:29.608Z,10.07
2019-02-05T02:48:00.839Z,10.08
2019-02-05T02:48:32.479Z,10.07
2019-02-05T02:49:03.742Z,10.07
2019-02-05T02:49:34.934Z,10.07
2019-02-05T02:50:06.167Z,10.04
2019-02-05T02:50:37.446Z,10.04
2019-02-05T02:51:08.695Z,10.01
2019-02-05T02:51:39.952Z,10.00
2019-02-05T02:52:11.169Z,10.00
2019-02-05T02:52:42.402Z,9.99
2019-02-05T02:53:13.613Z,9.99
2019-02-05T02:53:44.843Z,9.97
2019-02-05T02:54:16.626Z,9.97
2019-02-05T02:54:47.875Z,9.98
2019-02-05T02:55:19.103Z,9.97
2019-02-05T02:55:50.339Z,9.96
2019-02-05T02:56:21.568Z,9.97
2019-02-05T02:57:04.394Z,9.94
2019-02-05T02:57:25.769Z,9.93
2019-02-05T02:57:56.978Z,9.93
2019-02-05T02:58:28.239Z,9.93
2019-02-05T02:58:59.477Z,9.93
2019-02-05T02:59:30.691Z,9.94
2019-02-05T03:00:02.813Z,9.95
2019-02-05T03:00:34.085Z,9.94
2019-02-05T03:01:05.297Z,9.94
2019-02-05T03:01:36.532Z,9.92
2019-02-05T03:02:07.753Z,9.91
2019-02-05T03:02:38.981Z,9.89
2019-02-05T03:03:10.236Z,9.88
2019-02-05T03:03:41.464Z,9.89
2019-02-05T03:04:12.719Z,9.90
2019-02-05T03:04:43.930Z,9.89
2019-02-05T03:05:15.186Z,9.90
2019-02-05T03:05:46.911Z,9.88
2019-02-05T03:06:18.124Z,9.89
2019-02-05T03:06:51.316Z,9.87
2019-02-05T03:07:22.545Z,9.85
2019-02-05T03:07:53.769Z,9.86
2019-02-05T03:08:25.005Z,9.84
2019-02-05T03:08:56.272Z,9.83
2019-02-05T03:09:27.571Z,9.83
2019-02-05T03:09:58.757Z,9.81
2019-02-05T03:10:30.245Z,9.81
2019-02-05T03:11:01.513Z,9.80
2019-02-05T03:11:32.708Z,9.80
2019-02-05T03:12:03.930Z,9.79
2019-02-05T03:12:35.172Z,9.77
2019-02-05T03:13:06.412Z,9.76
2019-02-05T03:13:37.649Z,9.76
2019-02-05T03:14:08.904Z,9.76
2019-02-05T03:14:40.109Z,9.72
2019-02-05T03:15:11.320Z,9.70
2019-02-05T03:15:42.549Z,9.70
2019-02-05T03:16:14.231Z,9.66
2019-02-05T03:16:45.446Z,9.65
2019-02-05T03:17:16.672Z,9.63
2019-02-05T03:17:47.925Z,9.60
2019-02-05T03:18:19.189Z,9.57
2019-02-05T03:18:50.413Z,9.55
2019-02-05T03:19:21.653Z,9.55
2019-02-05T03:19:52.864Z,9.53
2019-02-05T03:20:24.085Z,9.53
2019-02-05T03:20:55.816Z,9.54
2019-02-05T03:21:27.044Z,9.54
2019-02-05T03:21:58.282Z,9.54
2019-02-05T03:22:29.513Z,9.54
2019-02-05T03:23:00.757Z,9.57
2019-02-05T03:23:32.076Z,9.57
2019-02-05T03:24:03.296Z,9.56
2019-02-05T03:24:34.513Z,9.56
2019-02-05T03:25:05.748Z,9.56
2019-02-05T03:25:37.453Z,9.55
2019-02-05T03:26:08.698Z,9.54
2019-02-05T03:26:39.914Z,9.55
2019-02-05T03:27:17.971Z,9.55
2019-02-05T03:27:44.132Z,9.55
2019-02-05T03:28:15.400Z,9.45
2019-02-05T03:28:46.627Z,9.42
2019-02-05T03:29:17.822Z,9.40
2019-02-05T03:29:49.035Z,9.40
2019-02-05T03:30:20.272Z,9.41
2019-02-05T03:30:51.553Z,9.40
2019-02-05T03:31:24.467Z,9.40
2019-02-05T03:31:55.696Z,9.37
2019-02-05T03:32:26.922Z,9.34
2019-02-05T03:32:58.165Z,9.31
2019-02-05T03:33:29.451Z,9.26
2019-02-05T03:34:00.677Z,9.24
2019-02-05T03:34:31.951Z,9.24
2019-02-05T03:35:03.170Z,9.21
2019-02-05T03:35:34.389Z,9.24
2019-02-05T03:36:05.591Z,9.22
2019-02-05T03:36:36.812Z,9.22
2019-02-05T03:37:08.521Z,9.22
2019-02-05T03:37:39.758Z,9.22
2019-02-05T03:38:10.993Z,9.22
2019-02-05T03:38:42.262Z,9.22
2019-02-05T03:39:13.519Z,9.23
2019-02-05T03:39:45.013Z,9.23
2019-02-05T03:40:16.635Z,9.24
2019-02-05T03:40:47.853Z,9.23
2019-02-05T03:41:19.082Z,9.22
2019-02-05T03:41:50.532Z,9.19
2019-02-05T03:42:21.793Z,9.17
2019-02-05T03:42:53.028Z,9.15
2019-02-05T03:43:24.315Z,9.14
2019-02-05T03:43:55.536Z,9.13
2019-02-05T03:44:26.783Z,9.09
2019-02-05T03:44:58.027Z,9.04
2019-02-05T03:45:29.247Z,8.98
2019-02-05T03:46:00.456Z,8.93
2019-02-05T03:46:31.673Z,8.89
2019-02-05T03:47:02.909Z,8.87
2019-02-05T03:47:34.510Z,8.84
2019-02-05T03:48:05.732Z,8.81
2019-02-05T03:48:37.002Z,8.79
2019-02-05T03:49:08.205Z,8.77
2019-02-05T03:49:39.445Z,8.75
2019-02-05T03:50:10.657Z,8.74
2019-02-05T03:50:41.941Z,8.73
2019-02-05T03:51:13.208Z,8.73
2019-02-05T03:51:44.470Z,8.73
2019-02-05T03:52:15.984Z,8.73
2019-02-05T03:52:47.491Z,8.72
2019-02-05T03:53:18.740Z,8.73
2019-02-05T03:53:49.956Z,8.74
2019-02-05T03:54:21.183Z,8.73
2019-02-05T03:54:52.446Z,8.73
2019-02-05T03:55:23.675Z,8.73
2019-02-05T03:55:54.912Z,8.71
2019-02-05T03:56:26.194Z,8.70
2019-02-05T03:56:57.405Z,8.66
2019-02-05T03:57:31.033Z,8.63
2019-02-05T03:58:01.584Z,8.59
2019-02-05T03:58:32.807Z,8.59
2019-02-05T03:59:04.049Z,8.60
2019-02-05T03:59:35.329Z,8.60
2019-02-05T04:00:06.567Z,8.60
2019-02-05T04:00:37.779Z,8.60
2019-02-05T04:01:09.015Z,8.57
2019-02-05T04:01:40.286Z,7.71
2019-02-05T04:02:11.532Z,8.55
2019-02-05T04:02:42.815Z,8.55
2019-02-05T04:03:14.088Z,8.55
2019-02-05T04:03:45.683Z,8.54
2019-02-05T04:04:16.927Z,8.54
2019-02-05T04:04:48.137Z,8.54
2019-02-05T04:05:19.368Z,8.54
2019-02-05T04:05:50.591Z,8.53
2019-02-05T04:06:21.809Z,8.53
2019-02-05T04:06:53.087Z,8.52
2019-02-05T04:07:24.304Z,8.52
2019-02-05T04:07:55.521Z,8.52
2019-02-05T04:08:26.746Z,8.51
2019-02-05T04:08:58.022Z,8.51
2019-02-05T04:09:29.623Z,8.46
2019-02-05T04:10:00.846Z,8.45
2019-02-05T04:10:32.062Z,8.41
2019-02-05T04:11:03.319Z,8.40
2019-02-05T04:11:34.617Z,8.32
2019-02-05T04:12:05.847Z,8.24
2019-02-05T04:12:37.105Z,8.21
2019-02-05T04:13:08.418Z,8.18
2019-02-05T04:13:39.662Z,8.18
2019-02-05T04:14:10.885Z,8.19
2019-02-05T04:14:42.115Z,8.16
2019-02-05T04:15:13.601Z,8.13
2019-02-05T04:15:44.853Z,8.06
2019-02-05T04:16:16.076Z,8.03
2019-02-05T04:16:47.326Z,7.98
2019-02-05T04:17:18.553Z,7.87
2019-02-05T04:17:49.823Z,7.81
2019-02-05T04:18:21.054Z,7.78
2019-02-05T04:18:52.288Z,7.72
2019-02-05T04:19:23.521Z,7.65
2019-02-05T04:19:54.753Z,7.59
2019-02-05T04:20:25.967Z,7.58
2019-02-05T04:20:57.464Z,7.60
2019-02-05T04:21:28.688Z,7.61
2019-02-05T04:21:59.905Z,7.61
2019-02-05T04:22:31.131Z,7.61
2019-02-05T04:23:02.386Z,7.57
2019-02-05T04:23:33.623Z,7.55
2019-02-05T04:24:04.851Z,7.54
2019-02-05T04:24:36.057Z,7.54
2019-02-05T04:25:07.277Z,7.53
2019-02-05T04:25:38.504Z,7.52
2019-02-05T04:26:09.709Z,7.50
2019-02-05T04:26:41.372Z,6.86
2019-02-05T04:27:12.589Z,7.46
2019-02-05T04:27:47.240Z,7.41
2019-02-05T04:28:16.779Z,7.40
2019-02-05T04:28:48.017Z,7.37
2019-02-05T04:29:19.278Z,7.38
2019-02-05T04:29:50.498Z,7.37
2019-02-05T04:30:21.722Z,7.40
2019-02-05T04:30:52.972Z,7.37
2019-02-05T04:31:24.207Z,7.37
2019-02-05T04:31:55.429Z,7.34
2019-02-05T04:32:27.147Z,7.36
2019-02-05T04:32:58.415Z,7.35
2019-02-05T04:33:29.647Z,7.36
2019-02-05T04:34:00.954Z,7.36
2019-02-05T04:34:32.266Z,7.34
2019-02-05T04:35:03.557Z,7.35
2019-02-05T04:35:34.770Z,7.35
2019-02-05T04:36:06.046Z,7.38
2019-02-05T04:36:37.292Z,7.40
2019-02-05T04:37:08.625Z,7.38
2019-02-05T04:37:39.819Z,7.42
2019-02-05T04:38:11.624Z,7.45
2019-02-05T04:38:42.891Z,7.45
2019-02-05T04:39:14.125Z,7.50
2019-02-05T04:39:45.359Z,7.53
2019-02-05T04:40:16.593Z,7.51
2019-02-05T04:40:47.821Z,7.53
2019-02-05T04:41:19.065Z,7.52
2019-02-05T04:41:50.368Z,7.48
2019-02-05T04:42:21.591Z,7.49
2019-02-05T04:42:53.090Z,7.48
2019-02-05T04:43:24.319Z,7.46
2019-02-05T04:43:55.551Z,7.42
2019-02-05T04:44:26.813Z,7.40
2019-02-05T04:44:58.113Z,7.37
2019-02-05T04:45:34.176Z,7.37
2019-02-05T04:46:02.327Z,7.41
2019-02-05T04:46:33.537Z,7.42
2019-02-05T04:47:04.778Z,7.45
2019-02-05T04:47:36.002Z,7.41
2019-02-05T04:48:07.301Z,7.43
2019-02-05T04:48:38.562Z,7.42
2019-02-05T04:49:09.780Z,7.38
2019-02-05T04:49:41.378Z,7.34
2019-02-05T04:50:12.673Z,7.31
2019-02-05T04:50:43.922Z,7.34
2019-02-05T04:51:15.169Z,7.38
2019-02-05T04:51:46.393Z,7.38
2019-02-05T04:52:17.620Z,7.41
2019-02-05T04:52:48.870Z,7.43
2019-02-05T04:53:20.156Z,7.43
2019-02-05T04:53:51.377Z,7.43
2019-02-05T04:54:22.874Z,7.46
2019-02-05T04:54:54.106Z,7.48
2019-02-05T04:55:25.364Z,7.49
2019-02-05T04:55:56.583Z,7.51
2019-02-05T04:56:27.846Z,7.52
2019-02-05T04:56:59.100Z,7.54
2019-02-05T04:57:30.319Z,7.54
2019-02-05T04:58:01.756Z,7.58
2019-02-05T04:58:33.043Z,7.59
2019-02-05T04:59:04.311Z,7.61
2019-02-05T04:59:35.505Z,7.63
2019-02-05T05:00:07.018Z,7.63
2019-02-05T05:00:38.240Z,7.65
2019-02-05T05:01:09.514Z,7.67
2019-02-05T05:01:40.729Z,7.69
2019-02-05T05:02:11.939Z,7.72
2019-02-05T05:02:43.298Z,7.74
2019-02-05T05:03:14.521Z,7.74
2019-02-05T05:03:45.758Z,7.72
2019-02-05T05:04:16.969Z,7.69
2019-02-05T05:04:48.200Z,7.66
2019-02-05T05:05:19.502Z,6.40
2019-02-05T05:05:51.010Z,7.59
2019-02-05T05:06:22.276Z,7.52
2019-02-05T05:06:53.576Z,7.47
2019-02-05T05:07:24.821Z,7.45
2019-02-05T05:07:56.048Z,7.39
2019-02-05T05:08:27.264Z,7.34
2019-02-05T05:08:58.505Z,7.27
2019-02-05T05:09:29.748Z,6.21
2019-02-05T05:10:00.992Z,7.20
2019-02-05T05:10:32.198Z,7.16
2019-02-05T05:11:03.429Z,7.11
2019-02-05T05:11:35.094Z,7.09
2019-02-05T05:12:06.337Z,7.08
2019-02-05T05:12:37.551Z,7.06
2019-02-05T05:13:08.770Z,7.04
2019-02-05T05:13:40.025Z,7.02
2019-02-05T05:14:11.267Z,7.02
2019-02-05T05:14:42.528Z,7.03
2019-02-05T05:15:13.694Z,7.06
2019-02-05T05:15:44.954Z,7.06
2019-02-05T05:16:16.440Z,7.07
2019-02-05T05:16:47.649Z,7.07
2019-02-05T05:17:19.335Z,7.06
2019-02-05T05:17:50.594Z,6.99
2019-02-05T05:18:21.829Z,6.99
2019-02-05T05:18:53.044Z,6.97
2019-02-05T05:19:24.271Z,6.93
2019-02-05T05:19:55.514Z,6.90
2019-02-05T05:20:26.736Z,6.83
2019-02-05T05:20:57.963Z,6.79
2019-02-05T05:21:29.197Z,6.75
2019-02-05T05:22:00.762Z,6.74
2019-02-05T05:22:31.987Z,6.69
2019-02-05T05:23:03.212Z,6.66
2019-02-05T05:23:34.453Z,6.65
2019-02-05T05:24:05.669Z,6.65
2019-02-05T05:24:36.909Z,6.64
2019-02-05T05:25:08.111Z,6.63
2019-02-05T05:25:39.348Z,6.61
2019-02-05T05:26:10.541Z,6.58
2019-02-05T05:26:41.800Z,6.53
2019-02-05T05:27:13.027Z,6.51
2019-02-05T05:27:44.783Z,6.50
2019-02-05T05:28:16.021Z,6.48
2019-02-05T05:28:47.250Z,6.48
2019-02-05T05:29:18.485Z,6.44
2019-02-05T05:29:49.760Z,6.42
2019-02-05T05:30:20.976Z,6.41
2019-02-05T05:30:52.182Z,6.40
2019-02-05T05:31:23.395Z,6.40
2019-02-05T05:31:54.607Z,6.41
2019-02-05T05:32:26.177Z,6.39
2019-02-05T05:32:57.393Z,6.38
2019-02-05T05:33:28.633Z,6.37
2019-02-05T05:33:59.850Z,6.34
2019-02-05T05:34:31.099Z,6.31
2019-02-05T05:35:02.322Z,6.28
2019-02-05T05:35:41.863Z,6.27
2019-02-05T05:36:06.482Z,6.27
2019-02-05T05:36:37.713Z,6.30
2019-02-05T05:37:08.935Z,6.31
2019-02-05T05:37:40.289Z,6.31
2019-02-05T05:38:11.992Z,6.32
2019-02-05T05:38:43.202Z,6.34
2019-02-05T05:39:14.414Z,6.38
2019-02-05T05:39:45.626Z,6.44
2019-02-05T05:40:16.962Z,6.47
2019-02-05T05:40:48.153Z,6.49
2019-02-05T05:41:19.432Z,6.51
2019-02-05T05:41:50.647Z,6.52
2019-02-05T05:42:21.890Z,6.56
2019-02-05T05:42:53.099Z,6.57
2019-02-05T05:43:24.329Z,6.57
2019-02-05T05:43:55.826Z,6.61
2019-02-05T05:44:27.035Z,6.64
2019-02-05T05:44:58.253Z,6.68
2019-02-05T05:45:29.494Z,6.75
2019-02-05T05:46:00.780Z,6.81
2019-02-05T05:46:32.015Z,6.83
2019-02-05T05:47:03.254Z,6.85
2019-02-05T05:47:34.461Z,6.87
2019-02-05T05:48:05.671Z,6.87
2019-02-05T05:48:37.062Z,6.87
2019-02-05T05:49:08.269Z,6.88
2019-02-05T05:49:39.510Z,6.90
2019-02-05T05:50:10.738Z,6.93
2019-02-05T05:50:41.955Z,6.93
2019-02-05T05:51:13.229Z,6.97
2019-02-05T05:51:44.431Z,7.03
2019-02-05T05:52:15.634Z,7.07
2019-02-05T05:52:46.854Z,7.12
2019-02-05T05:53:18.067Z,7.14
2019-02-05T05:53:49.299Z,7.15
2019-02-05T05:54:20.853Z,7.22
2019-02-05T05:54:52.063Z,7.28
2019-02-05T05:55:23.278Z,7.32
2019-02-05T05:55:54.513Z,7.39
2019-02-05T05:56:25.774Z,7.43
2019-02-05T05:56:57.024Z,7.47
2019-02-05T05:57:28.264Z,7.53
2019-02-05T05:57:59.532Z,7.56
2019-02-05T05:58:30.753Z,7.58
2019-02-05T05:59:01.985Z,7.59
2019-02-05T05:59:33.186Z,7.60
2019-02-05T06:00:04.708Z,7.59
2019-02-05T06:00:35.929Z,7.61
2019-02-05T06:01:07.203Z,7.62
2019-02-05T06:01:38.435Z,7.65
2019-02-05T06:02:09.641Z,7.67
2019-02-05T06:02:40.851Z,7.67
2019-02-05T06:03:12.119Z,7.69
2019-02-05T06:03:43.331Z,7.70
2019-02-05T06:04:14.591Z,7.71
2019-02-05T06:04:46.088Z,7.70
2019-02-05T06:05:17.333Z,7.69
2019-02-05T06:05:48.598Z,7.67
2019-02-05T06:06:19.827Z,7.67
2019-02-05T06:06:51.088Z,7.63
2019-02-05T06:07:22.308Z,7.62
2019-02-05T06:07:53.511Z,7.62
2019-02-05T06:08:24.745Z,7.61
2019-02-05T06:08:55.955Z,7.61
2019-02-05T06:09:27.167Z,7.60
2019-02-05T06:09:58.379Z,7.61
2019-02-05T06:10:29.974Z,7.63
2019-02-05T06:11:01.184Z,7.61
2019-02-05T06:11:32.422Z,7.61
2019-02-05T06:12:03.632Z,7.56
2019-02-05T06:12:34.867Z,7.59
2019-02-05T06:13:06.110Z,7.62
2019-02-05T06:13:37.344Z,7.61
2019-02-05T06:14:08.669Z,7.61
2019-02-05T06:14:39.929Z,7.59
2019-02-05T06:15:11.318Z,7.58
2019-02-05T06:15:42.617Z,7.60
2019-02-05T06:16:13.927Z,7.59
2019-02-05T06:16:45.134Z,7.61
2019-02-05T06:17:16.342Z,7.60
2019-02-05T06:17:47.554Z,7.63
2019-02-05T06:18:18.762Z,7.66
2019-02-05T06:18:49.988Z,7.66
2019-02-05T06:19:21.250Z,7.66
2019-02-05T06:19:52.462Z,7.68
2019-02-05T06:20:23.664Z,7.69
2019-02-05T06:20:55.258Z,6.79
2019-02-05T06:21:26.479Z,7.70
2019-02-05T06:21:57.787Z,7.71
2019-02-05T06:22:29.018Z,7.72
2019-02-05T06:23:00.240Z,7.75
2019-02-05T06:23:31.444Z,7.75
2019-02-05T06:24:02.665Z,7.75
2019-02-05T06:24:33.896Z,7.77
2019-02-05T06:25:05.118Z,7.79
2019-02-05T06:25:36.381Z,7.09
2019-02-05T06:26:07.608Z,7.77
2019-02-05T06:26:39.108Z,7.79
2019-02-05T06:27:10.336Z,7.78
2019-02-05T06:27:41.544Z,7.81
2019-02-05T06:28:12.763Z,7.79
2019-02-05T06:28:44.042Z,7.79
2019-02-05T06:29:15.260Z,7.77
2019-02-05T06:29:46.473Z,7.77
2019-02-05T06:30:17.679Z,7.77
2019-02-05T06:30:48.890Z,7.80
2019-02-05T06:31:20.291Z,7.82
2019-02-05T06:31:51.535Z,7.85
2019-02-05T06:32:22.759Z,7.84
2019-02-05T06:32:54.021Z,7.86
2019-02-05T06:33:25.234Z,7.88
2019-02-05T06:33:56.443Z,7.89
2019-02-05T06:34:27.689Z,7.91
2019-02-05T06:34:58.893Z,7.91
2019-02-05T06:35:30.102Z,7.92
2019-02-05T06:36:01.317Z,7.93
2019-02-05T06:36:32.589Z,7.92
2019-02-05T06:37:04.174Z,7.94
2019-02-05T06:37:35.387Z,7.95
2019-02-05T06:38:06.583Z,7.95
2019-02-05T06:38:37.839Z,7.98
2019-02-05T06:39:09.070Z,7.98
2019-02-05T06:39:40.272Z,7.98
2019-02-05T06:40:11.474Z,8.04
2019-02-05T06:40:42.682Z,8.05
2019-02-05T06:41:13.909Z,8.03
2019-02-05T06:41:45.191Z,8.13
2019-02-05T06:42:16.533Z,8.14
2019-02-05T06:42:48.129Z,8.18
2019-02-05T06:43:19.351Z,8.20
2019-02-05T06:43:50.567Z,8.20
2019-02-05T06:44:21.788Z,8.21
2019-02-05T06:44:53.007Z,8.22
2019-02-05T06:45:24.211Z,8.25
2019-02-05T06:45:55.441Z,8.31
2019-02-05T06:46:26.673Z,8.36
2019-02-05T06:46:57.890Z,8.41
2019-02-05T06:47:29.446Z,8.45
2019-02-05T06:48:00.705Z,8.48
2019-02-05T06:48:31.907Z,8.51
2019-02-05T06:49:03.179Z,8.54
2019-02-05T06:49:34.403Z,8.59
2019-02-05T06:50:05.615Z,8.63
2019-02-05T06:50:36.838Z,8.69
2019-02-05T06:51:08.064Z,8.76